sensor_id;sensor_type;location;lat;lon;timestamp;P1;durP1;ratioP1;P2;durP2;ratioP2
25721;SDS011;13578;53.450;15.496;2024-03-06T00:00:56;19.65;;;12.88;;
25721;SDS011;13578;53.450;15.496;2024-03-06T00:03:57;20.30;;;13.80;;
25721;SDS011;13578;53.450;15.496;2024-03-06T00:06:57;21.00;;;13.18;;
25721;SDS011;13578;53.450;15.496;2024-03-06T00:09:58;19.67;;;12.65;;
25721;SDS011;13578;53.450;15.496;2024-03-06T00:12:59;20.02;;;13.85;;
25721;SDS011;13578;53.450;15.496;2024-03-06T00:16:00;20.55;;;13.85;;
25721;SDS011;13578;53.450;15.496;2024-03-06T00:19:00;21.23;;;13.45;;
25721;SDS011;13578;53.450;15.496;2024-03-06T00:22:01;21.27;;;13.80;;
25721;SDS011;13578;53.450;15.496;2024-03-06T00:25:02;19.83;;;12.73;;
25721;SDS011;13578;53.450;15.496;2024-03-06T00:28:03;21.88;;;12.93;;
25721;SDS011;13578;53.450;15.496;2024-03-06T00:31:07;23.77;;;13.75;;
25721;SDS011;13578;53.450;15.496;2024-03-06T00:34:07;20.73;;;13.15;;
25721;SDS011;13578;53.450;15.496;2024-03-06T00:37:08;23.25;;;13.60;;
25721;SDS011;13578;53.450;15.496;2024-03-06T00:40:09;20.15;;;13.00;;
25721;SDS011;13578;53.450;15.496;2024-03-06T00:43:10;22.90;;;13.90;;
25721;SDS011;13578;53.450;15.496;2024-03-06T00:46:11;21.85;;;12.82;;
25721;SDS011;13578;53.450;15.496;2024-03-06T00:49:11;20.17;;;13.50;;
25721;SDS011;13578;53.450;15.496;2024-03-06T00:52:12;17.48;;;12.48;;
25721;SDS011;13578;53.450;15.496;2024-03-06T00:55:13;21.95;;;12.95;;
25721;SDS011;13578;53.450;15.496;2024-03-06T00:58:13;23.45;;;14.60;;
25721;SDS011;13578;53.450;15.496;2024-03-06T01:01:15;18.83;;;12.70;;
25721;SDS011;13578;53.450;15.496;2024-03-06T01:04:16;23.02;;;14.20;;
25721;SDS011;13578;53.450;15.496;2024-03-06T01:07:17;20.13;;;13.60;;
25721;SDS011;13578;53.450;15.496;2024-03-06T01:10:17;21.52;;;13.82;;
25721;SDS011;13578;53.450;15.496;2024-03-06T01:13:18;22.95;;;13.15;;
25721;SDS011;13578;53.450;15.496;2024-03-06T01:16:19;24.65;;;13.68;;
25721;SDS011;13578;53.450;15.496;2024-03-06T01:19:20;21.13;;;13.40;;
25721;SDS011;13578;53.450;15.496;2024-03-06T01:22:21;19.50;;;13.65;;
25721;SDS011;13578;53.450;15.496;2024-03-06T01:25:22;21.20;;;13.82;;
25721;SDS011;13578;53.450;15.496;2024-03-06T01:28:22;25.85;;;14.38;;
25721;SDS011;13578;53.450;15.496;2024-03-06T01:31:23;25.33;;;14.80;;
25721;SDS011;13578;53.450;15.496;2024-03-06T01:34:24;23.10;;;13.02;;
25721;SDS011;13578;53.450;15.496;2024-03-06T01:37:25;28.60;;;14.57;;
25721;SDS011;13578;53.450;15.496;2024-03-06T01:40:26;21.95;;;14.30;;
25721;SDS011;13578;53.450;15.496;2024-03-06T01:43:27;19.17;;;13.95;;
25721;SDS011;13578;53.450;15.496;2024-03-06T01:46:28;19.45;;;13.02;;
25721;SDS011;13578;53.450;15.496;2024-03-06T01:49:28;23.75;;;13.70;;
25721;SDS011;13578;53.450;15.496;2024-03-06T01:52:29;19.90;;;13.25;;
25721;SDS011;13578;53.450;15.496;2024-03-06T01:55:30;22.33;;;13.48;;
25721;SDS011;13578;53.450;15.496;2024-03-06T01:58:31;21.30;;;13.05;;
25721;SDS011;13578;53.450;15.496;2024-03-06T02:01:34;19.65;;;12.52;;
25721;SDS011;13578;53.450;15.496;2024-03-06T02:04:34;22.30;;;12.88;;
25721;SDS011;13578;53.450;15.496;2024-03-06T02:07:35;22.05;;;12.50;;
25721;SDS011;13578;53.450;15.496;2024-03-06T02:10:39;17.48;;;12.30;;
25721;SDS011;13578;53.450;15.496;2024-03-06T02:13:39;24.25;;;13.45;;
25721;SDS011;13578;53.450;15.496;2024-03-06T02:16:41;17.48;;;12.20;;
25721;SDS011;13578;53.450;15.496;2024-03-06T02:19:43;21.80;;;12.57;;
25721;SDS011;13578;53.450;15.496;2024-03-06T02:22:44;21.00;;;13.20;;
25721;SDS011;13578;53.450;15.496;2024-03-06T02:25:45;21.10;;;12.98;;
25721;SDS011;13578;53.450;15.496;2024-03-06T02:28:49;20.02;;;12.50;;
25721;SDS011;13578;53.450;15.496;2024-03-06T02:31:54;20.60;;;13.40;;
25721;SDS011;13578;53.450;15.496;2024-03-06T02:34:54;20.65;;;13.93;;
25721;SDS011;13578;53.450;15.496;2024-03-06T02:37:55;19.52;;;12.35;;
25721;SDS011;13578;53.450;15.496;2024-03-06T02:40:57;20.90;;;14.15;;
25721;SDS011;13578;53.450;15.496;2024-03-06T02:43:57;19.92;;;13.52;;
25721;SDS011;13578;53.450;15.496;2024-03-06T02:46:58;25.88;;;14.43;;
25721;SDS011;13578;53.450;15.496;2024-03-06T02:49:59;21.92;;;15.27;;
25721;SDS011;13578;53.450;15.496;2024-03-06T02:53:00;20.55;;;14.20;;
25721;SDS011;13578;53.450;15.496;2024-03-06T02:56:00;23.55;;;14.80;;
25721;SDS011;13578;53.450;15.496;2024-03-06T02:59:01;25.48;;;15.07;;
25721;SDS011;13578;53.450;15.496;2024-03-06T03:02:03;24.70;;;15.25;;
25721;SDS011;13578;53.450;15.496;2024-03-06T03:05:04;20.73;;;13.70;;
25721;SDS011;13578;53.450;15.496;2024-03-06T03:08:05;27.00;;;15.65;;
25721;SDS011;13578;53.450;15.496;2024-03-06T03:11:06;24.00;;;14.93;;
25721;SDS011;13578;53.450;15.496;2024-03-06T03:14:08;25.38;;;15.27;;
25721;SDS011;13578;53.450;15.496;2024-03-06T03:17:08;22.40;;;14.27;;
25721;SDS011;13578;53.450;15.496;2024-03-06T03:20:09;23.45;;;14.88;;
25721;SDS011;13578;53.450;15.496;2024-03-06T03:23:11;25.67;;;15.88;;
25721;SDS011;13578;53.450;15.496;2024-03-06T03:26:14;25.27;;;14.68;;
25721;SDS011;13578;53.450;15.496;2024-03-06T03:29:15;32.03;;;15.88;;
25721;SDS011;13578;53.450;15.496;2024-03-06T03:32:15;30.70;;;16.63;;
25721;SDS011;13578;53.450;15.496;2024-03-06T03:35:16;33.85;;;17.13;;
25721;SDS011;13578;53.450;15.496;2024-03-06T03:38:21;24.40;;;16.65;;
25721;SDS011;13578;53.450;15.496;2024-03-06T03:41:21;31.90;;;17.92;;
25721;SDS011;13578;53.450;15.496;2024-03-06T03:44:22;28.05;;;15.68;;
25721;SDS011;13578;53.450;15.496;2024-03-06T03:47:23;29.00;;;18.08;;
25721;SDS011;13578;53.450;15.496;2024-03-06T03:50:23;28.25;;;17.45;;
25721;SDS011;13578;53.450;15.496;2024-03-06T03:53:24;33.60;;;18.08;;
25721;SDS011;13578;53.450;15.496;2024-03-06T03:56:24;25.38;;;17.02;;
25721;SDS011;13578;53.450;15.496;2024-03-06T03:59:25;29.58;;;17.38;;
25721;SDS011;13578;53.450;15.496;2024-03-06T04:02:26;29.38;;;15.75;;
25721;SDS011;13578;53.450;15.496;2024-03-06T04:05:26;34.03;;;17.05;;
25721;SDS011;13578;53.450;15.496;2024-03-06T04:08:27;26.95;;;17.58;;
25721;SDS011;13578;53.450;15.496;2024-03-06T04:11:28;36.72;;;17.88;;
25721;SDS011;13578;53.450;15.496;2024-03-06T04:14:29;34.25;;;19.40;;
25721;SDS011;13578;53.450;15.496;2024-03-06T04:17:30;38.22;;;19.27;;
25721;SDS011;13578;53.450;15.496;2024-03-06T04:20:31;34.25;;;19.88;;
25721;SDS011;13578;53.450;15.496;2024-03-06T04:23:32;37.35;;;20.15;;
25721;SDS011;13578;53.450;15.496;2024-03-06T04:26:33;31.52;;;18.75;;
25721;SDS011;13578;53.450;15.496;2024-03-06T04:29:34;30.13;;;17.75;;
25721;SDS011;13578;53.450;15.496;2024-03-06T04:32:34;30.33;;;18.85;;
25721;SDS011;13578;53.450;15.496;2024-03-06T04:35:35;35.90;;;19.60;;
25721;SDS011;13578;53.450;15.496;2024-03-06T04:38:36;36.33;;;19.35;;
25721;SDS011;13578;53.450;15.496;2024-03-06T04:41:37;29.13;;;18.58;;
25721;SDS011;13578;53.450;15.496;2024-03-06T04:44:38;30.90;;;17.48;;
25721;SDS011;13578;53.450;15.496;2024-03-06T04:47:38;28.15;;;16.45;;
25721;SDS011;13578;53.450;15.496;2024-03-06T04:50:39;28.30;;;16.55;;
25721;SDS011;13578;53.450;15.496;2024-03-06T04:53:41;27.40;;;15.60;;
25721;SDS011;13578;53.450;15.496;2024-03-06T04:56:42;26.17;;;16.20;;
25721;SDS011;13578;53.450;15.496;2024-03-06T04:59:43;30.02;;;15.98;;
25721;SDS011;13578;53.450;15.496;2024-03-06T05:02:43;31.95;;;18.10;;
25721;SDS011;13578;53.450;15.496;2024-03-06T05:05:44;32.20;;;19.05;;
25721;SDS011;13578;53.450;15.496;2024-03-06T05:08:45;35.17;;;18.60;;
25721;SDS011;13578;53.450;15.496;2024-03-06T05:11:45;29.90;;;17.00;;
25721;SDS011;13578;53.450;15.496;2024-03-06T05:14:46;38.63;;;21.40;;
25721;SDS011;13578;53.450;15.496;2024-03-06T05:17:47;31.45;;;19.75;;
25721;SDS011;13578;53.450;15.496;2024-03-06T05:20:48;43.72;;;22.75;;
25721;SDS011;13578;53.450;15.496;2024-03-06T05:23:48;41.17;;;22.48;;
25721;SDS011;13578;53.450;15.496;2024-03-06T05:26:49;39.05;;;21.20;;
25721;SDS011;13578;53.450;15.496;2024-03-06T05:29:51;41.65;;;22.50;;
25721;SDS011;13578;53.450;15.496;2024-03-06T05:32:52;33.83;;;20.15;;
25721;SDS011;13578;53.450;15.496;2024-03-06T05:35:52;33.67;;;20.55;;
25721;SDS011;13578;53.450;15.496;2024-03-06T05:38:53;37.30;;;20.30;;
25721;SDS011;13578;53.450;15.496;2024-03-06T05:41:54;33.90;;;19.77;;
25721;SDS011;13578;53.450;15.496;2024-03-06T05:44:56;40.60;;;20.88;;
25721;SDS011;13578;53.450;15.496;2024-03-06T05:48:05;33.03;;;19.63;;
25721;SDS011;13578;53.450;15.496;2024-03-06T05:51:06;37.85;;;20.95;;
25721;SDS011;13578;53.450;15.496;2024-03-06T05:54:07;34.40;;;20.50;;
25721;SDS011;13578;53.450;15.496;2024-03-06T05:57:09;38.83;;;20.55;;
25721;SDS011;13578;53.450;15.496;2024-03-06T06:00:10;31.75;;;18.73;;
25721;SDS011;13578;53.450;15.496;2024-03-06T06:03:11;33.47;;;18.92;;
25721;SDS011;13578;53.450;15.496;2024-03-06T06:06:14;36.13;;;20.42;;
25721;SDS011;13578;53.450;15.496;2024-03-06T06:09:15;36.20;;;20.50;;
25721;SDS011;13578;53.450;15.496;2024-03-06T06:12:15;39.85;;;21.38;;
25721;SDS011;13578;53.450;15.496;2024-03-06T06:15:16;38.53;;;20.63;;
25721;SDS011;13578;53.450;15.496;2024-03-06T06:18:17;35.20;;;19.80;;
25721;SDS011;13578;53.450;15.496;2024-03-06T06:21:18;42.53;;;21.92;;
25721;SDS011;13578;53.450;15.496;2024-03-06T06:24:18;40.35;;;21.65;;
25721;SDS011;13578;53.450;15.496;2024-03-06T06:27:19;40.85;;;21.42;;
25721;SDS011;13578;53.450;15.496;2024-03-06T06:30:20;41.40;;;20.67;;
25721;SDS011;13578;53.450;15.496;2024-03-06T06:33:20;39.75;;;20.60;;
25721;SDS011;13578;53.450;15.496;2024-03-06T06:36:21;33.97;;;19.35;;
25721;SDS011;13578;53.450;15.496;2024-03-06T06:39:22;39.28;;;20.13;;
25721;SDS011;13578;53.450;15.496;2024-03-06T06:42:22;36.60;;;20.10;;
25721;SDS011;13578;53.450;15.496;2024-03-06T06:45:25;37.33;;;19.55;;
25721;SDS011;13578;53.450;15.496;2024-03-06T06:48:26;36.80;;;20.38;;
25721;SDS011;13578;53.450;15.496;2024-03-06T06:51:27;33.33;;;17.88;;
25721;SDS011;13578;53.450;15.496;2024-03-06T06:54:27;29.27;;;17.08;;
25721;SDS011;13578;53.450;15.496;2024-03-06T06:57:28;31.38;;;19.33;;
25721;SDS011;13578;53.450;15.496;2024-03-06T07:00:29;28.20;;;17.73;;
25721;SDS011;13578;53.450;15.496;2024-03-06T07:03:30;29.60;;;17.75;;
25721;SDS011;13578;53.450;15.496;2024-03-06T07:06:31;29.63;;;17.77;;
25721;SDS011;13578;53.450;15.496;2024-03-06T07:09:32;31.27;;;17.02;;
25721;SDS011;13578;53.450;15.496;2024-03-06T07:12:32;31.95;;;17.67;;
25721;SDS011;13578;53.450;15.496;2024-03-06T07:15:33;32.35;;;17.48;;
25721;SDS011;13578;53.450;15.496;2024-03-06T07:18:34;33.63;;;18.70;;
25721;SDS011;13578;53.450;15.496;2024-03-06T07:21:35;29.08;;;16.95;;
25721;SDS011;13578;53.450;15.496;2024-03-06T07:24:36;28.42;;;16.50;;
25721;SDS011;13578;53.450;15.496;2024-03-06T07:27:37;30.02;;;16.67;;
25721;SDS011;13578;53.450;15.496;2024-03-06T07:30:37;29.42;;;16.15;;
25721;SDS011;13578;53.450;15.496;2024-03-06T07:33:38;27.67;;;15.93;;
25721;SDS011;13578;53.450;15.496;2024-03-06T07:36:39;25.30;;;16.02;;
25721;SDS011;13578;53.450;15.496;2024-03-06T07:39:40;25.98;;;15.85;;
25721;SDS011;13578;53.450;15.496;2024-03-06T07:42:40;27.67;;;15.32;;
25721;SDS011;13578;53.450;15.496;2024-03-06T07:45:41;28.23;;;17.20;;
25721;SDS011;13578;53.450;15.496;2024-03-06T07:48:42;29.85;;;18.08;;
25721;SDS011;13578;53.450;15.496;2024-03-06T07:51:46;41.58;;;18.90;;
25721;SDS011;13578;53.450;15.496;2024-03-06T07:54:47;32.90;;;20.50;;
25721;SDS011;13578;53.450;15.496;2024-03-06T07:57:48;36.83;;;21.60;;
25721;SDS011;13578;53.450;15.496;2024-03-06T08:00:48;33.45;;;21.85;;
25721;SDS011;13578;53.450;15.496;2024-03-06T08:03:49;34.95;;;21.23;;
25721;SDS011;13578;53.450;15.496;2024-03-06T08:06:50;33.08;;;18.27;;
25721;SDS011;13578;53.450;15.496;2024-03-06T08:09:50;32.55;;;19.55;;
25721;SDS011;13578;53.450;15.496;2024-03-06T08:12:51;37.65;;;20.45;;
25721;SDS011;13578;53.450;15.496;2024-03-06T08:15:51;33.10;;;19.02;;
25721;SDS011;13578;53.450;15.496;2024-03-06T08:18:53;39.70;;;20.15;;
25721;SDS011;13578;53.450;15.496;2024-03-06T08:21:53;37.40;;;20.50;;
25721;SDS011;13578;53.450;15.496;2024-03-06T08:24:54;31.45;;;19.08;;
25721;SDS011;13578;53.450;15.496;2024-03-06T08:27:55;38.08;;;20.77;;
25721;SDS011;13578;53.450;15.496;2024-03-06T08:30:55;33.72;;;19.90;;
25721;SDS011;13578;53.450;15.496;2024-03-06T08:33:56;30.23;;;17.80;;
25721;SDS011;13578;53.450;15.496;2024-03-06T08:36:56;34.38;;;18.35;;
25721;SDS011;13578;53.450;15.496;2024-03-06T08:39:57;36.85;;;18.73;;
25721;SDS011;13578;53.450;15.496;2024-03-06T08:42:59;36.33;;;18.58;;
25721;SDS011;13578;53.450;15.496;2024-03-06T08:45:59;36.47;;;19.05;;
25721;SDS011;13578;53.450;15.496;2024-03-06T08:49:00;35.78;;;19.35;;
25721;SDS011;13578;53.450;15.496;2024-03-06T08:52:00;31.63;;;18.50;;
25721;SDS011;13578;53.450;15.496;2024-03-06T08:55:01;30.50;;;17.20;;
25721;SDS011;13578;53.450;15.496;2024-03-06T08:58:09;30.90;;;17.88;;
25721;SDS011;13578;53.450;15.496;2024-03-06T09:01:09;36.75;;;19.00;;
25721;SDS011;13578;53.450;15.496;2024-03-06T09:04:10;44.90;;;19.38;;
25721;SDS011;13578;53.450;15.496;2024-03-06T09:07:10;35.33;;;19.30;;
25721;SDS011;13578;53.450;15.496;2024-03-06T09:10:12;33.22;;;18.92;;
25721;SDS011;13578;53.450;15.496;2024-03-06T09:13:13;34.75;;;18.73;;
25721;SDS011;13578;53.450;15.496;2024-03-06T09:16:14;35.80;;;19.58;;
25721;SDS011;13578;53.450;15.496;2024-03-06T09:19:14;33.92;;;18.77;;
25721;SDS011;13578;53.450;15.496;2024-03-06T09:22:15;42.33;;;20.33;;
25721;SDS011;13578;53.450;15.496;2024-03-06T09:25:16;38.13;;;20.90;;
25721;SDS011;13578;53.450;15.496;2024-03-06T09:28:16;40.92;;;20.77;;
25721;SDS011;13578;53.450;15.496;2024-03-06T09:31:17;41.90;;;22.30;;
25721;SDS011;13578;53.450;15.496;2024-03-06T09:34:17;45.70;;;23.85;;
25721;SDS011;13578;53.450;15.496;2024-03-06T09:37:18;44.20;;;21.70;;
25721;SDS011;13578;53.450;15.496;2024-03-06T09:40:20;46.05;;;22.25;;
25721;SDS011;13578;53.450;15.496;2024-03-06T09:43:24;45.00;;;23.58;;
25721;SDS011;13578;53.450;15.496;2024-03-06T09:46:26;44.97;;;22.63;;
25721;SDS011;13578;53.450;15.496;2024-03-06T09:49:29;48.88;;;23.88;;
25721;SDS011;13578;53.450;15.496;2024-03-06T09:52:30;49.55;;;21.98;;
25721;SDS011;13578;53.450;15.496;2024-03-06T09:55:33;45.58;;;23.90;;
25721;SDS011;13578;53.450;15.496;2024-03-06T09:58:35;48.75;;;24.05;;
25721;SDS011;13578;53.450;15.496;2024-03-06T10:01:39;48.67;;;25.08;;
25721;SDS011;13578;53.450;15.496;2024-03-06T10:04:46;51.58;;;24.88;;
25721;SDS011;13578;53.450;15.496;2024-03-06T10:07:47;45.30;;;24.75;;
25721;SDS011;13578;53.450;15.496;2024-03-06T10:10:52;55.58;;;25.70;;
25721;SDS011;13578;53.450;15.496;2024-03-06T10:13:52;49.47;;;26.23;;
25721;SDS011;13578;53.450;15.496;2024-03-06T10:16:53;49.90;;;26.27;;
25721;SDS011;13578;53.450;15.496;2024-03-06T10:19:58;49.38;;;26.17;;
25721;SDS011;13578;53.450;15.496;2024-03-06T10:23:01;53.47;;;26.83;;
25721;SDS011;13578;53.450;15.496;2024-03-06T10:26:02;48.50;;;26.42;;
25721;SDS011;13578;53.450;15.496;2024-03-06T10:29:03;50.58;;;25.38;;
25721;SDS011;13578;53.450;15.496;2024-03-06T10:32:04;49.97;;;26.85;;
25721;SDS011;13578;53.450;15.496;2024-03-06T10:35:05;47.53;;;26.33;;
25721;SDS011;13578;53.450;15.496;2024-03-06T10:38:09;47.65;;;25.85;;
25721;SDS011;13578;53.450;15.496;2024-03-06T10:41:14;45.92;;;25.38;;
25721;SDS011;13578;53.450;15.496;2024-03-06T10:44:15;48.10;;;25.25;;
25721;SDS011;13578;53.450;15.496;2024-03-06T10:47:19;53.15;;;23.83;;
25721;SDS011;13578;53.450;15.496;2024-03-06T10:50:19;44.10;;;24.90;;
25721;SDS011;13578;53.450;15.496;2024-03-06T10:53:21;52.28;;;25.42;;
25721;SDS011;13578;53.450;15.496;2024-03-06T10:56:23;46.70;;;25.58;;
25721;SDS011;13578;53.450;15.496;2024-03-06T10:59:27;53.50;;;28.27;;
25721;SDS011;13578;53.450;15.496;2024-03-06T11:02:29;45.38;;;26.02;;
25721;SDS011;13578;53.450;15.496;2024-03-06T11:05:30;47.72;;;26.17;;
25721;SDS011;13578;53.450;15.496;2024-03-06T11:08:31;52.80;;;26.33;;
25721;SDS011;13578;53.450;15.496;2024-03-06T11:11:39;50.10;;;27.98;;
25721;SDS011;13578;53.450;15.496;2024-03-06T11:14:48;51.42;;;25.95;;
25721;SDS011;13578;53.450;15.496;2024-03-06T11:17:51;49.20;;;28.00;;
25721;SDS011;13578;53.450;15.496;2024-03-06T11:27:20;58.17;;;28.42;;
25721;SDS011;13578;53.450;15.496;2024-03-06T11:30:23;61.60;;;29.73;;
25721;SDS011;13578;53.450;15.496;2024-03-06T11:33:46;53.38;;;28.75;;
25721;SDS011;13578;53.450;15.496;2024-03-06T11:36:46;48.80;;;27.63;;
25721;SDS011;13578;53.450;15.496;2024-03-06T11:39:47;54.15;;;26.73;;
25721;SDS011;13578;53.450;15.496;2024-03-06T11:42:48;52.58;;;27.33;;
25721;SDS011;13578;53.450;15.496;2024-03-06T11:45:49;51.97;;;27.92;;
25721;SDS011;13578;53.450;15.496;2024-03-06T11:48:54;54.90;;;27.23;;
25721;SDS011;13578;53.450;15.496;2024-03-06T11:51:56;51.70;;;27.60;;
25721;SDS011;13578;53.450;15.496;2024-03-06T11:54:57;56.90;;;27.35;;
25721;SDS011;13578;53.450;15.496;2024-03-06T11:57:58;50.65;;;27.25;;
25721;SDS011;13578;53.450;15.496;2024-03-06T12:00:59;49.53;;;27.52;;
25721;SDS011;13578;53.450;15.496;2024-03-06T12:04:01;56.40;;;27.50;;
25721;SDS011;13578;53.450;15.496;2024-03-06T12:07:01;52.75;;;26.35;;
25721;SDS011;13578;53.450;15.496;2024-03-06T12:10:05;48.65;;;25.20;;
25721;SDS011;13578;53.450;15.496;2024-03-06T12:13:06;54.30;;;27.13;;
25721;SDS011;13578;53.450;15.496;2024-03-06T12:16:07;58.60;;;27.52;;
25721;SDS011;13578;53.450;15.496;2024-03-06T12:19:08;51.72;;;27.13;;
25721;SDS011;13578;53.450;15.496;2024-03-06T12:22:10;53.03;;;27.02;;
25721;SDS011;13578;53.450;15.496;2024-03-06T12:25:17;48.83;;;26.13;;
25721;SDS011;13578;53.450;15.496;2024-03-06T12:28:23;60.50;;;27.17;;
25721;SDS011;13578;53.450;15.496;2024-03-06T12:31:24;50.40;;;28.15;;
25721;SDS011;13578;53.450;15.496;2024-03-06T12:34:24;51.08;;;27.52;;
25721;SDS011;13578;53.450;15.496;2024-03-06T12:37:31;56.03;;;27.05;;
25721;SDS011;13578;53.450;15.496;2024-03-06T12:40:32;50.80;;;25.52;;
25721;SDS011;13578;53.450;15.496;2024-03-06T12:43:33;53.10;;;25.92;;
25721;SDS011;13578;53.450;15.496;2024-03-06T12:46:34;53.85;;;28.15;;
25721;SDS011;13578;53.450;15.496;2024-03-06T12:49:35;58.03;;;27.08;;
25721;SDS011;13578;53.450;15.496;2024-03-06T12:52:36;48.67;;;26.60;;
25721;SDS011;13578;53.450;15.496;2024-03-06T12:55:37;52.65;;;26.55;;
25721;SDS011;13578;53.450;15.496;2024-03-06T12:58:38;49.20;;;26.02;;
25721;SDS011;13578;53.450;15.496;2024-03-06T13:01:38;53.13;;;26.98;;
25721;SDS011;13578;53.450;15.496;2024-03-06T13:04:39;60.50;;;28.05;;
25721;SDS011;13578;53.450;15.496;2024-03-06T13:07:40;55.08;;;28.95;;
25721;SDS011;13578;53.450;15.496;2024-03-06T13:10:42;52.50;;;29.65;;
25721;SDS011;13578;53.450;15.496;2024-03-06T13:13:43;51.65;;;27.88;;
25721;SDS011;13578;53.450;15.496;2024-03-06T13:16:43;54.00;;;27.52;;
25721;SDS011;13578;53.450;15.496;2024-03-06T13:19:44;54.92;;;27.50;;
25721;SDS011;13578;53.450;15.496;2024-03-06T13:22:45;62.42;;;29.30;;
25721;SDS011;13578;53.450;15.496;2024-03-06T13:25:45;67.40;;;30.38;;
25721;SDS011;13578;53.450;15.496;2024-03-06T13:28:46;61.45;;;28.55;;
25721;SDS011;13578;53.450;15.496;2024-03-06T13:31:46;61.97;;;28.08;;
25721;SDS011;13578;53.450;15.496;2024-03-06T13:34:47;62.58;;;29.88;;
25721;SDS011;13578;53.450;15.496;2024-03-06T13:37:48;60.22;;;28.25;;
25721;SDS011;13578;53.450;15.496;2024-03-06T13:40:49;64.75;;;26.65;;
25721;SDS011;13578;53.450;15.496;2024-03-06T13:43:50;61.03;;;28.75;;
25721;SDS011;13578;53.450;15.496;2024-03-06T13:46:50;55.67;;;28.70;;
25721;SDS011;13578;53.450;15.496;2024-03-06T13:49:51;58.05;;;28.05;;
25721;SDS011;13578;53.450;15.496;2024-03-06T13:52:52;57.65;;;29.23;;
25721;SDS011;13578;53.450;15.496;2024-03-06T13:55:52;48.80;;;26.67;;
25721;SDS011;13578;53.450;15.496;2024-03-06T13:58:53;64.72;;;28.45;;
25721;SDS011;13578;53.450;15.496;2024-03-06T14:01:54;60.78;;;30.25;;
25721;SDS011;13578;53.450;15.496;2024-03-06T14:04:55;52.53;;;27.13;;
25721;SDS011;13578;53.450;15.496;2024-03-06T14:07:55;57.80;;;27.00;;
25721;SDS011;13578;53.450;15.496;2024-03-06T14:10:56;62.50;;;29.20;;
25721;SDS011;13578;53.450;15.496;2024-03-06T14:13:57;56.75;;;26.20;;
25721;SDS011;13578;53.450;15.496;2024-03-06T14:16:58;58.03;;;26.08;;
25721;SDS011;13578;53.450;15.496;2024-03-06T14:19:59;63.88;;;27.50;;
25721;SDS011;13578;53.450;15.496;2024-03-06T14:22:59;55.30;;;25.55;;
25721;SDS011;13578;53.450;15.496;2024-03-06T14:26:00;65.30;;;26.17;;
25721;SDS011;13578;53.450;15.496;2024-03-06T14:29:02;56.97;;;25.85;;
25721;SDS011;13578;53.450;15.496;2024-03-06T14:32:06;56.90;;;25.00;;
25721;SDS011;13578;53.450;15.496;2024-03-06T14:35:07;64.15;;;27.40;;
25721;SDS011;13578;53.450;15.496;2024-03-06T14:38:08;62.20;;;28.70;;
25721;SDS011;13578;53.450;15.496;2024-03-06T14:41:08;67.10;;;27.25;;
25721;SDS011;13578;53.450;15.496;2024-03-06T14:44:09;55.35;;;26.10;;
25721;SDS011;13578;53.450;15.496;2024-03-06T14:47:10;62.35;;;25.63;;
25721;SDS011;13578;53.450;15.496;2024-03-06T14:50:10;65.65;;;27.55;;
25721;SDS011;13578;53.450;15.496;2024-03-06T14:53:12;57.25;;;26.52;;
25721;SDS011;13578;53.450;15.496;2024-03-06T14:56:12;58.47;;;24.95;;
25721;SDS011;13578;53.450;15.496;2024-03-06T14:59:13;67.25;;;26.67;;
25721;SDS011;13578;53.450;15.496;2024-03-06T15:02:14;52.80;;;24.13;;
25721;SDS011;13578;53.450;15.496;2024-03-06T15:05:15;72.78;;;26.50;;
25721;SDS011;13578;53.450;15.496;2024-03-06T15:08:15;56.45;;;26.25;;
25721;SDS011;13578;53.450;15.496;2024-03-06T15:11:16;53.30;;;24.73;;
25721;SDS011;13578;53.450;15.496;2024-03-06T15:14:17;66.03;;;27.40;;
25721;SDS011;13578;53.450;15.496;2024-03-06T15:17:17;58.95;;;25.25;;
25721;SDS011;13578;53.450;15.496;2024-03-06T15:20:18;53.25;;;24.45;;
25721;SDS011;13578;53.450;15.496;2024-03-06T15:23:19;57.13;;;24.83;;
25721;SDS011;13578;53.450;15.496;2024-03-06T15:26:19;56.53;;;24.27;;
25721;SDS011;13578;53.450;15.496;2024-03-06T15:29:20;55.58;;;23.75;;
25721;SDS011;13578;53.450;15.496;2024-03-06T15:32:20;53.25;;;23.92;;
25721;SDS011;13578;53.450;15.496;2024-03-06T15:35:22;55.45;;;24.63;;
25721;SDS011;13578;53.450;15.496;2024-03-06T15:38:23;58.47;;;24.15;;
25721;SDS011;13578;53.450;15.496;2024-03-06T15:41:24;63.88;;;25.48;;
25721;SDS011;13578;53.450;15.496;2024-03-06T15:44:24;61.47;;;24.95;;
25721;SDS011;13578;53.450;15.496;2024-03-06T15:47:25;64.25;;;27.23;;
25721;SDS011;13578;53.450;15.496;2024-03-06T15:50:26;57.00;;;25.25;;
25721;SDS011;13578;53.450;15.496;2024-03-06T15:53:26;56.08;;;24.00;;
25721;SDS011;13578;53.450;15.496;2024-03-06T15:56:29;59.10;;;25.48;;
25721;SDS011;13578;53.450;15.496;2024-03-06T15:59:32;53.05;;;25.15;;
25721;SDS011;13578;53.450;15.496;2024-03-06T16:02:35;63.17;;;24.33;;
25721;SDS011;13578;53.450;15.496;2024-03-06T16:05:35;50.70;;;24.10;;
25721;SDS011;13578;53.450;15.496;2024-03-06T16:08:37;59.17;;;24.75;;
25721;SDS011;13578;53.450;15.496;2024-03-06T16:11:37;55.50;;;22.88;;
25721;SDS011;13578;53.450;15.496;2024-03-06T16:14:38;59.05;;;26.92;;
25721;SDS011;13578;53.450;15.496;2024-03-06T16:17:39;50.55;;;23.55;;
25721;SDS011;13578;53.450;15.496;2024-03-06T16:20:39;48.85;;;23.63;;
25721;SDS011;13578;53.450;15.496;2024-03-06T16:23:41;63.70;;;27.23;;
25721;SDS011;13578;53.450;15.496;2024-03-06T16:26:41;63.15;;;25.63;;
25721;SDS011;13578;53.450;15.496;2024-03-06T16:29:42;64.88;;;25.00;;
25721;SDS011;13578;53.450;15.496;2024-03-06T16:32:43;63.33;;;27.10;;
25721;SDS011;13578;53.450;15.496;2024-03-06T16:35:43;66.05;;;24.70;;
25721;SDS011;13578;53.450;15.496;2024-03-06T16:38:44;53.17;;;23.77;;
25721;SDS011;13578;53.450;15.496;2024-03-06T16:41:45;64.88;;;26.98;;
25721;SDS011;13578;53.450;15.496;2024-03-06T16:44:46;62.42;;;27.00;;
25721;SDS011;13578;53.450;15.496;2024-03-06T16:47:47;61.35;;;25.52;;
25721;SDS011;13578;53.450;15.496;2024-03-06T16:50:47;66.82;;;26.77;;
25721;SDS011;13578;53.450;15.496;2024-03-06T16:53:48;57.10;;;25.48;;
25721;SDS011;13578;53.450;15.496;2024-03-06T16:56:49;60.47;;;26.58;;
25721;SDS011;13578;53.450;15.496;2024-03-06T16:59:49;61.33;;;25.15;;
25721;SDS011;13578;53.450;15.496;2024-03-06T17:02:50;59.53;;;25.08;;
25721;SDS011;13578;53.450;15.496;2024-03-06T17:05:50;65.95;;;27.92;;
25721;SDS011;13578;53.450;15.496;2024-03-06T17:08:51;54.67;;;26.08;;
25721;SDS011;13578;53.450;15.496;2024-03-06T17:11:52;56.40;;;26.88;;
25721;SDS011;13578;53.450;15.496;2024-03-06T17:14:52;64.70;;;26.92;;
25721;SDS011;13578;53.450;15.496;2024-03-06T17:17:53;62.63;;;27.15;;
25721;SDS011;13578;53.450;15.496;2024-03-06T17:20:54;56.13;;;27.42;;
25721;SDS011;13578;53.450;15.496;2024-03-06T17:23:54;66.97;;;28.05;;
25721;SDS011;13578;53.450;15.496;2024-03-06T17:26:55;65.50;;;27.80;;
25721;SDS011;13578;53.450;15.496;2024-03-06T17:29:56;60.05;;;26.75;;